Strona główna
METAR-TAF:

METAR-TAF

Lotnisko :

Chester, Connecticut, Stany Zjednoczone

Szerokość geograficzna: 41-23-02N, Długość geograficzna: 072-30-21W, wysokość: 127 m

Aktualna obserwacja pogody

Raport powstał 26 minut temu, godzina 22:35 UTC
Cisza
Temperatura 13°C
Wilgotność 47%
Ciśnienie 1015 hPa
Widzialność: 16.1 km
Zachmurzenie całkowite na wysokości 5500 ft

METAR: KSNC 042235Z AUTO 00000KT 10SM OVC055 13/02 A2998 RMK AO2

czas: 19:01 (23:01 UTC)


TAF: brakujący

Obserwacja i prognoza pogody dla ponad 4000 lotnisk (raport METAR i TAF).

Dostępne stacje oznaczono żółtymi i czerwonymi punktami na mapie.

Najedź kursorem aby zobaczyć nazwę stacji.

Kliknij aby zobaczyć obserwacje i prognozy pogody.

Aby zmienić mapę: kliknij na zielony przycisk z czarnym krzyżykiem, aby powiększyć; na zielony przycisk z myślnikiem, aby pomniejszyć; na zielone strzałki, aby przejść do map sąsiednich.


METAR-TAF: